Time;durP1;ratioP1;P1;durP2;ratioP2;P2;SDS_P1;SDS_P2;PMS_P1;PMS_P2;Temp;Humidity;BMP_temperature;BMP_pressure;BME280_temperature;BME280_humidity;BME280_pressure;Samples;Min_cycle;Max_cycle;Signal;HPM_P1;HPM_P2
2023/03/07 00:02:13;;;;;;;14.60;9.25;;;5.80;99.90;;;;;;5015105;28;92425;-73
2023/03/07 00:04:44;;;;;;;13.32;9.20;;;5.80;99.90;;;;;;4997147;28;91774;-73
2023/03/07 00:07:12;;;;;;;11.88;7.82;;;5.80;99.90;;;;;;4996846;28;93249;-73
2023/03/07 00:09:39;;;;;;;12.63;7.82;;;5.70;99.90;;;;;;5014677;28;93160;-73
2023/03/07 00:12:07;;;;;;;12.50;7.90;;;5.70;99.90;;;;;;4995677;28;94815;-73
2023/03/07 00:14:34;;;;;;;11.98;8.15;;;5.70;99.90;;;;;;4996667;28;92440;-73
2023/03/07 00:17:01;;;;;;;12.18;8.23;;;5.70;99.90;;;;;;5014961;28;93167;-73
2023/03/07 00:19:28;;;;;;;12.23;8.23;;;5.70;99.90;;;;;;4996525;28;95761;-73
2023/03/07 00:21:55;;;;;;;10.68;7.32;;;5.70;99.90;;;;;;4980515;28;92431;-73
2023/03/07 00:24:22;;;;;;;10.70;7.70;;;5.70;99.90;;;;;;4996766;28;92471;-73
2023/03/07 00:26:49;;;;;;;10.95;6.72;;;5.70;99.90;;;;;;5014724;28;93419;-73
2023/03/07 00:29:16;;;;;;;11.13;6.75;;;5.70;99.90;;;;;;4997050;28;93096;-73
2023/03/07 00:31:43;;;;;;;9.75;5.80;;;5.70;99.90;;;;;;4980070;28;92422;-73
2023/03/07 00:34:10;;;;;;;9.80;6.63;;;5.70;99.90;;;;;;5017696;28;92441;-73
2023/03/07 00:36:37;;;;;;;9.48;5.78;;;5.70;99.90;;;;;;5016941;28;95730;-73
2023/03/07 00:39:04;;;;;;;7.97;5.60;;;5.70;99.90;;;;;;5017798;28;97837;-73
2023/03/07 00:41:31;;;;;;;6.90;4.88;;;5.70;99.90;;;;;;5017983;28;92465;-73
2023/03/07 00:43:58;;;;;;;6.25;4.20;;;5.70;99.90;;;;;;5016272;28;92474;-73
2023/03/07 00:46:26;;;;;;;5.32;3.88;;;5.80;99.90;;;;;;4999636;28;95903;-74
2023/03/07 00:48:54;;;;;;;6.97;4.43;;;5.70;99.90;;;;;;4999708;28;95457;-73
2023/03/07 00:51:22;;;;;;;5.90;4.40;;;5.80;99.90;;;;;;4999918;28;92492;-73
2023/03/07 00:53:49;;;;;;;6.63;3.50;;;5.80;99.90;;;;;;5000193;28;91843;-73
2023/03/07 00:56:23;;;;;;;6.38;3.33;;;5.80;99.90;;;;;;4983097;28;94591;-73
2023/03/07 00:58:51;;;;;;;3.53;2.50;;;5.80;99.90;;;;;;4999484;28;95766;-73
2023/03/07 01:01:21;;;;;;;3.78;2.60;;;5.70;99.90;;;;;;4998572;28;94819;-73
2023/03/07 01:03:51;;;;;;;3.15;2.05;;;5.70;99.90;;;;;;4999571;28;92438;-74
2023/03/07 01:06:25;;;;;;;5.20;2.13;;;5.60;99.90;;;;;;5000084;28;93170;-73
2023/03/07 01:08:55;;;;;;;4.13;1.90;;;5.60;99.90;;;;;;4983035;28;95503;-73
2023/03/07 01:11:23;;;;;;;3.70;2.67;;;5.50;99.90;;;;;;5016422;28;92657;-73
2023/03/07 01:13:50;;;;;;;2.75;2.25;;;5.50;99.90;;;;;;4999411;28;92547;-73
2023/03/07 01:16:26;;;;;;;3.15;1.52;;;5.50;99.90;;;;;;4999157;28;95587;-73
2023/03/07 01:18:57;;;;;;;4.40;1.70;;;5.40;99.90;;;;;;4983186;28;95376;-73
2023/03/07 01:21:33;;;;;;;4.10;1.50;;;5.30;99.90;;;;;;4999257;28;92523;-73
2023/03/07 01:24:06;;;;;;;3.92;1.30;;;5.30;99.90;;;;;;4999292;28;93036;-73
2023/03/07 01:26:33;;;;;;;2.85;1.77;;;5.30;99.90;;;;;;4997509;28;98394;-73
2023/03/07 01:29:03;;;;;;;2.40;1.33;;;5.20;99.90;;;;;;4999103;28;97918;-73
2023/03/07 01:31:33;;;;;;;2.42;1.45;;;5.30;99.90;;;;;;5017279;28;92484;-73
2023/03/07 01:34:02;;;;;;;2.75;1.70;;;5.30;99.90;;;;;;4998791;28;92484;-73
2023/03/07 01:36:33;;;;;;;1.67;1.50;;;5.30;99.90;;;;;;4982699;28;94442;-73
2023/03/07 01:39:09;;;;;;;2.97;1.77;;;5.30;99.90;;;;;;4982931;28;94678;-73
2023/03/07 01:41:40;;;;;;;5.22;1.38;;;5.30;99.90;;;;;;4999011;28;92483;-73
2023/03/07 01:44:26;;;;;;;2.78;1.60;;;5.30;99.90;;;;;;4998583;28;91796;-73
2023/03/07 01:46:55;;;;;;;3.33;1.40;;;5.40;99.90;;;;;;4982374;28;95726;-73
2023/03/07 01:49:37;;;;;;;3.28;1.33;;;5.30;99.90;;;;;;4998855;28;93947;-73
2023/03/07 01:52:10;;;;;;;3.58;1.27;;;5.30;99.90;;;;;;4998537;28;94948;-73
2023/03/07 01:54:47;;;;;;;3.53;1.15;;;5.40;99.90;;;;;;5015166;28;92516;-73
2023/03/07 01:57:23;;;;;;;5.72;1.88;;;5.30;99.90;;;;;;4998639;28;95846;-73
2023/03/07 01:59:55;;;;;;;6.60;1.70;;;5.30;99.90;;;;;;4998491;28;95691;-73
2023/03/07 02:02:23;;;;;;;1.77;1.23;;;5.30;99.90;;;;;;4998895;28;92559;-73
2023/03/07 02:04:53;;;;;;;2.97;1.58;;;5.30;99.90;;;;;;4998420;28;92563;-73
2023/03/07 02:07:23;;;;;;;3.28;1.23;;;5.30;99.90;;;;;;4987619;28;95973;-73
2023/03/07 02:09:53;;;;;;;2.53;1.60;;;5.20;99.90;;;;;;4992128;28;95346;-73
2023/03/07 02:12:20;;;;;;;8.35;1.70;;;5.20;99.90;;;;;;4959147;28;92470;-73
2023/03/07 02:14:50;;;;;;;5.75;1.55;;;5.20;99.90;;;;;;4975078;28;92570;-73
2023/03/07 02:17:18;;;;;;;6.32;1.90;;;5.00;99.90;;;;;;4973900;28;97869;-73
2023/03/07 02:20:04;;;;;;;4.63;1.70;;;5.00;99.90;;;;;;4974884;28;98093;-73
2023/03/07 02:22:31;;;;;;;6.18;1.73;;;5.00;99.90;;;;;;4975439;28;92940;-73
2023/03/07 02:25:04;;;;;;;5.78;1.60;;;5.00;99.90;;;;;;4974846;28;93417;-73
2023/03/07 02:27:35;;;;;;;5.97;1.63;;;5.00;99.90;;;;;;4991964;28;95439;-73
2023/03/07 02:30:04;;;;;;;4.43;1.55;;;5.00;99.90;;;;;;4975140;28;96097;-73
2023/03/07 02:32:31;;;;;;;3.70;1.58;;;5.00;99.90;;;;;;4975428;28;92449;-73
2023/03/07 02:34:58;;;;;;;3.28;1.40;;;5.10;99.90;;;;;;4992004;28;92323;-73
2023/03/07 02:37:30;;;;;;;3.83;1.58;;;5.00;99.90;;;;;;4974993;28;95960;-73
2023/03/07 02:40:04;;;;;;;5.60;1.65;;;5.00;99.90;;;;;;4991293;28;95482;-73
2023/03/07 02:42:34;;;;;;;2.00;1.30;;;5.10;99.90;;;;;;4974126;28;95171;-73
2023/03/07 02:45:12;;;;;;;5.70;1.90;;;5.00;99.90;;;;;;4975020;28;92666;-73
2023/03/07 02:47:45;;;;;;;5.10;1.25;;;4.90;99.90;;;;;;4974623;28;95826;-73
2023/03/07 02:50:15;;;;;;;5.25;1.10;;;4.90;99.90;;;;;;4959367;28;95004;-73
2023/03/07 02:52:45;;;;;;;3.10;1.38;;;4.90;99.90;;;;;;4974819;28;92476;-73
2023/03/07 02:55:12;;;;;;;7.68;1.70;;;4.80;99.90;;;;;;4974583;28;92495;-73
2023/03/07 02:57:45;;;;;;;7.93;1.33;;;4.80;99.90;;;;;;4958265;28;95497;-73
2023/03/07 03:00:13;;;;;;;2.28;1.20;;;4.70;99.90;;;;;;4976301;28;91764;-73
2023/03/07 03:02:40;;;;;;;2.03;1.30;;;4.60;99.90;;;;;;4976313;28;92376;-73
2023/03/07 03:05:07;;;;;;;5.35;1.45;;;4.60;99.90;;;;;;4942511;28;92658;-73
2023/03/07 03:07:34;;;;;;;4.43;1.55;;;4.60;99.90;;;;;;4991297;28;94886;-73
2023/03/07 03:10:02;;;;;;;4.95;1.73;;;4.50;99.90;;;;;;4997314;28;97916;-73
2023/03/07 03:12:31;;;;;;;4.07;1.42;;;4.50;99.90;;;;;;4997740;28;92472;-73
2023/03/07 03:14:58;;;;;;;7.80;1.60;;;4.40;99.90;;;;;;5015687;28;92672;-73
2023/03/07 03:17:25;;;;;;;6.22;2.08;;;4.40;99.90;;;;;;5015504;28;93158;-73
2023/03/07 03:19:52;;;;;;;3.42;1.17;;;4.30;99.90;;;;;;4997256;28;95561;-73
2023/03/07 03:22:19;;;;;;;8.18;1.25;;;4.30;99.90;;;;;;4997500;28;92411;-73
2023/03/07 03:24:48;;;;;;;9.23;1.70;;;4.30;99.90;;;;;;4997714;28;92220;-73
2023/03/07 03:27:17;;;;;;;4.28;1.10;;;4.20;99.90;;;;;;4997291;28;95550;-73
2023/03/07 03:29:48;;;;;;;3.70;1.38;;;4.20;99.90;;;;;;5013708;28;95771;-73
2023/03/07 03:32:15;;;;;;;9.70;1.90;;;4.20;99.90;;;;;;4996376;28;94832;-73
2023/03/07 03:34:43;;;;;;;9.10;1.20;;;4.20;99.90;;;;;;4997514;28;92590;-73
2023/03/07 03:37:11;;;;;;;5.53;1.13;;;4.10;99.90;;;;;;4996960;28;95429;-73
2023/03/07 03:39:38;;;;;;;7.38;1.40;;;4.10;99.90;;;;;;5013950;28;95714;-73
2023/03/07 03:42:05;;;;;;;8.68;1.52;;;4.10;99.90;;;;;;4997093;28;92491;-73
2023/03/07 03:44:32;;;;;;;4.40;1.00;;;4.00;99.90;;;;;;5013958;28;92588;-73
2023/03/07 03:47:01;;;;;;;6.75;1.33;;;4.00;99.90;;;;;;4996851;28;94049;-73
2023/03/07 03:49:28;;;;;;;5.78;1.70;;;4.00;99.90;;;;;;4997225;28;94487;-73
2023/03/07 03:51:55;;;;;;;3.05;1.00;;;3.90;99.90;;;;;;5013496;28;92490;-73
2023/03/07 03:54:22;;;;;;;5.97;1.30;;;3.90;99.90;;;;;;4997111;28;92488;-73
2023/03/07 03:56:49;;;;;;;5.35;1.20;;;3.90;99.90;;;;;;4979366;28;97866;-73
2023/03/07 03:59:16;;;;;;;6.55;1.17;;;3.90;99.90;;;;;;4996900;28;98009;-73
2023/03/07 04:01:43;;;;;;;8.88;1.38;;;3.80;99.90;;;;;;4997237;28;92484;-73
2023/03/07 04:04:10;;;;;;;3.05;0.90;;;3.80;99.90;;;;;;4980255;28;92557;-73
2023/03/07 04:06:38;;;;;;;8.57;1.40;;;3.80;99.90;;;;;;4980097;28;95821;-73
2023/03/07 04:09:05;;;;;;;8.98;1.92;;;3.80;99.90;;;;;;4982870;28;95775;-73
2023/03/07 04:11:35;;;;;;;7.82;1.48;;;3.80;99.90;;;;;;5000538;28;92473;-73
2023/03/07 04:14:03;;;;;;;5.25;1.23;;;3.70;99.90;;;;;;4984474;28;91816;-73
2023/03/07 04:16:29;;;;;;;4.97;1.15;;;3.70;99.90;;;;;;5000242;28;95835;-73
2023/03/07 04:18:57;;;;;;;5.93;1.35;;;3.70;99.90;;;;;;5016955;28;95336;-73
2023/03/07 04:21:25;;;;;;;5.47;1.58;;;3.70;99.90;;;;;;4982632;28;94975;-73
2023/03/07 04:23:57;;;;;;;10.02;1.40;;;3.70;99.90;;;;;;4968106;28;92529;-73
2023/03/07 04:26:27;;;;;;;6.00;0.85;;;3.70;99.90;;;;;;5000097;28;95802;-73
2023/03/07 04:28:54;;;;;;;6.78;1.15;;;3.60;99.90;;;;;;4999920;28;95766;-73
2023/03/07 04:31:34;;;;;;;7.93;1.48;;;3.60;99.90;;;;;;4985568;28;93005;-73
2023/03/07 04:34:03;;;;;;;6.20;1.65;;;3.60;99.90;;;;;;4999892;28;92641;-73
2023/03/07 04:36:30;;;;;;;7.10;1.27;;;3.60;99.90;;;;;;4999964;28;95865;-73
2023/03/07 04:38:57;;;;;;;3.40;1.23;;;3.60;99.90;;;;;;5016860;28;95537;-73
2023/03/07 04:41:25;;;;;;;7.70;1.40;;;3.50;99.90;;;;;;4983782;28;92644;-73
2023/03/07 04:43:57;;;;;;;4.63;1.65;;;3.50;99.90;;;;;;4999955;28;92517;-73
2023/03/07 04:46:25;;;;;;;6.70;1.20;;;3.50;99.90;;;;;;4998486;28;98001;-73
2023/03/07 04:48:52;;;;;;;8.05;1.92;;;3.50;99.90;;;;;;4999540;28;97589;-73
2023/03/07 04:51:20;;;;;;;8.23;1.23;;;3.50;99.90;;;;;;5016663;28;92418;-73
2023/03/07 04:53:48;;;;;;;6.32;1.73;;;3.50;99.90;;;;;;5017924;28;92433;-73
2023/03/07 04:56:15;;;;;;;8.40;1.17;;;3.50;99.90;;;;;;5016127;28;95878;-73
2023/03/07 04:58:44;;;;;;;6.22;1.30;;;3.50;99.90;;;;;;4999699;28;94967;-73
2023/03/07 05:01:11;;;;;;;4.38;1.10;;;3.50;99.90;;;;;;4999498;28;92504;-73
2023/03/07 05:03:38;;;;;;;8.05;1.35;;;3.50;99.90;;;;;;4983632;28;91986;-73
2023/03/07 05:06:11;;;;;;;6.25;1.02;;;3.50;99.90;;;;;;4999293;28;95646;-73
2023/03/07 05:08:39;;;;;;;4.47;1.10;;;3.50;99.90;;;;;;4982782;28;93795;-73
2023/03/07 05:11:06;;;;;;;5.45;1.00;;;3.50;99.90;;;;;;4998567;28;94987;-73
2023/03/07 05:13:33;;;;;;;7.57;1.33;;;3.50;99.90;;;;;;5017757;28;92647;-73
2023/03/07 05:16:00;;;;;;;11.13;1.77;;;3.50;99.90;;;;;;4999282;28;94541;-73
2023/03/07 05:18:28;;;;;;;6.05;1.23;;;3.50;99.90;;;;;;4982738;28;95483;-73
2023/03/07 05:20:56;;;;;;;6.25;1.65;;;3.50;99.90;;;;;;4998460;28;93347;-73
2023/03/07 05:23:24;;;;;;;7.15;1.10;;;3.50;99.90;;;;;;4999096;28;92473;-73
2023/03/07 05:25:52;;;;;;;9.73;1.67;;;3.60;99.90;;;;;;4982950;28;94130;-73
2023/03/07 05:28:20;;;;;;;6.57;1.42;;;3.60;99.90;;;;;;4999195;28;95665;-73
2023/03/07 05:30:48;;;;;;;6.47;1.10;;;3.60;99.90;;;;;;5015779;28;92545;-73
2023/03/07 05:33:15;;;;;;;5.60;1.30;;;3.60;99.90;;;;;;4999153;28;92512;-73
2023/03/07 05:35:42;;;;;;;5.93;1.10;;;3.60;99.90;;;;;;4997543;28;97515;-74
2023/03/07 05:38:11;;;;;;;8.23;1.40;;;3.60;99.90;;;;;;4998564;28;97708;-73
2023/03/07 05:40:39;;;;;;;8.30;1.20;;;3.60;99.90;;;;;;4999222;28;92525;-73
2023/03/07 05:43:07;;;;;;;3.90;1.25;;;3.60;99.90;;;;;;4982587;28;92577;-73
2023/03/07 05:45:34;;;;;;;10.35;1.23;;;3.60;99.90;;;;;;4998799;28;95347;-73
2023/03/07 05:48:01;;;;;;;8.18;1.42;;;3.70;99.90;;;;;;4998838;28;95838;-73
2023/03/07 05:50:29;;;;;;;7.22;1.13;;;3.70;99.90;;;;;;4998760;28;92536;-73
2023/03/07 05:52:57;;;;;;;6.50;1.33;;;3.80;99.90;;;;;;5015946;28;91771;-73
2023/03/07 05:55:27;;;;;;;5.68;1.33;;;3.80;99.90;;;;;;4998456;28;95456;-73
2023/03/07 05:57:54;;;;;;;5.68;1.05;;;3.80;99.90;;;;;;4981959;28;95645;-73
2023/03/07 06:00:21;;;;;;;5.60;1.17;;;3.90;99.90;;;;;;5014021;28;95333;-73
2023/03/07 06:02:54;;;;;;;6.90;1.55;;;3.90;99.90;;;;;;4998829;28;92455;-73
2023/03/07 06:05:21;;;;;;;7.95;1.50;;;3.90;99.90;;;;;;5014705;28;95847;-73
2023/03/07 06:07:51;;;;;;;4.82;1.27;;;4.00;99.90;;;;;;5000642;28;95355;-73
2023/03/07 06:10:18;;;;;;;2.92;1.23;;;3.90;99.90;;;;;;4991897;28;92504;-73
2023/03/07 06:12:49;;;;;;;6.88;1.20;;;4.00;99.90;;;;;;4959228;28;92460;-73
2023/03/07 06:15:17;;;;;;;5.78;1.15;;;4.10;99.90;;;;;;4958885;28;95820;-73
2023/03/07 06:17:45;;;;;;;6.35;1.55;;;4.10;99.90;;;;;;4975768;28;95350;-73
2023/03/07 06:20:14;;;;;;;6.43;1.50;;;4.20;99.90;;;;;;4959186;28;92985;-73
2023/03/07 06:22:41;;;;;;;6.05;1.13;;;4.30;99.90;;;;;;4975234;28;92593;-73
2023/03/07 06:25:09;;;;;;;5.78;1.55;;;4.30;99.90;;;;;;4973776;28;97831;-73
2023/03/07 06:27:36;;;;;;;6.43;1.38;;;4.30;99.90;;;;;;4974771;28;98010;-73
2023/03/07 06:30:07;;;;;;;10.85;1.85;;;4.40;99.90;;;;;;4975458;28;92532;-73
2023/03/07 06:32:34;;;;;;;4.68;1.33;;;4.40;99.90;;;;;;4958860;28;92570;-73
2023/03/07 06:35:04;;;;;;;8.90;1.67;;;4.40;99.90;;;;;;4974868;28;95740;-73
2023/03/07 06:37:31;;;;;;;17.80;2.20;;;4.40;99.90;;;;;;4974536;28;95320;-73
2023/03/07 06:40:04;;;;;;;3.28;1.55;;;4.50;99.90;;;;;;4975111;28;92479;-73
2023/03/07 06:42:34;;;;;;;8.15;1.98;;;4.50;99.90;;;;;;4975263;28;91754;-73
2023/03/07 06:45:02;;;;;;;10.85;1.77;;;4.50;99.90;;;;;;4958592;28;94362;-73
2023/03/07 06:47:29;;;;;;;11.50;1.80;;;4.60;99.90;;;;;;4958291;28;95433;-73
2023/03/07 06:49:56;;;;;;;5.70;1.67;;;4.70;99.90;;;;;;4973639;28;94965;-73
2023/03/07 06:52:23;;;;;;;8.68;2.15;;;4.70;99.90;;;;;;4942252;28;92506;-73
2023/03/07 06:54:51;;;;;;;5.15;1.35;;;4.80;99.90;;;;;;4958249;28;94133;-73
2023/03/07 06:57:18;;;;;;;14.90;1.80;;;4.80;99.90;;;;;;4974543;28;95682;-73
2023/03/07 06:59:45;;;;;;;6.38;1.30;;;4.80;99.90;;;;;;4991445;28;93123;-73
2023/03/07 07:02:13;;;;;;;8.23;1.60;;;4.90;99.90;;;;;;4958174;28;92540;-74
2023/03/07 07:04:40;;;;;;;7.32;1.38;;;4.90;99.90;;;;;;4974320;28;95819;-73
2023/03/07 07:07:07;;;;;;;6.43;1.90;;;4.90;99.90;;;;;;4965079;28;98109;-73
2023/03/07 07:09:34;;;;;;;6.93;1.98;;;5.00;99.90;;;;;;5014299;28;92527;-73
2023/03/07 07:12:03;;;;;;;6.32;1.45;;;5.00;99.90;;;;;;4997903;28;92659;-73
2023/03/07 07:14:33;;;;;;;3.65;1.30;;;5.00;99.90;;;;;;4995945;28;98041;-73
2023/03/07 07:17:00;;;;;;;6.03;1.63;;;5.10;99.90;;;;;;4997542;28;97663;-73
2023/03/07 07:19:27;;;;;;;4.88;0.98;;;5.10;99.90;;;;;;5015492;28;92555;-73
2023/03/07 07:21:56;;;;;;;8.95;1.33;;;5.10;99.90;;;;;;4965421;28;92594;-73
2023/03/07 07:24:23;;;;;;;3.35;1.20;;;5.20;99.90;;;;;;4997185;28;95704;-73
2023/03/07 07:26:52;;;;;;;5.75;1.30;;;5.10;99.90;;;;;;4997227;28;95636;-73
2023/03/07 07:29:19;;;;;;;6.30;1.40;;;5.20;99.90;;;;;;4997529;28;93015;-73
2023/03/07 07:31:48;;;;;;;4.95;1.30;;;5.20;99.90;;;;;;4981490;28;91831;-74
2023/03/07 07:34:17;;;;;;;8.27;1.73;;;5.20;99.90;;;;;;4997272;28;95669;-73
2023/03/07 07:36:45;;;;;;;5.80;1.60;;;5.30;99.90;;;;;;4996897;28;95205;-73
2023/03/07 07:39:14;;;;;;;5.25;1.42;;;5.30;99.90;;;;;;4996486;28;95187;-73
2023/03/07 07:41:43;;;;;;;3.85;1.20;;;5.30;99.90;;;;;;5014017;28;92963;-73
2023/03/07 07:44:11;;;;;;;3.65;1.05;;;5.30;99.90;;;;;;5000416;28;95395;-73
2023/03/07 07:46:50;;;;;;;4.85;1.10;;;5.40;99.90;;;;;;5000720;28;95276;-73
2023/03/07 07:49:17;;;;;;;3.05;1.05;;;5.40;99.90;;;;;;4984324;28;92910;-74
2023/03/07 07:51:45;;;;;;;4.35;1.05;;;5.50;99.90;;;;;;5000702;28;92421;-73
2023/03/07 07:54:12;;;;;;;6.05;1.27;;;5.50;99.90;;;;;;5017223;28;95551;-73
2023/03/07 07:56:40;;;;;;;1.17;0.90;;;5.60;99.90;;;;;;5000640;28;95388;-74
2023/03/07 07:59:07;;;;;;;4.68;1.20;;;5.60;99.90;;;;;;5001013;28;92551;-73
2023/03/07 08:01:34;;;;;;;3.33;0.80;;;5.60;99.90;;;;;;4984142;28;93107;-73
2023/03/07 08:04:01;;;;;;;4.78;1.48;;;5.70;99.90;;;;;;5017072;28;100017;-73
2023/03/07 08:06:28;;;;;;;4.15;0.80;;;5.70;99.90;;;;;;4983318;28;97966;-73
2023/03/07 08:08:55;;;;;;;5.90;1.23;;;5.70;99.90;;;;;;5017165;28;92510;-73
2023/03/07 08:11:23;;;;;;;5.95;1.10;;;5.80;99.90;;;;;;5000756;28;92541;-73
2023/03/07 08:13:50;;;;;;;5.47;1.10;;;5.80;99.90;;;;;;5000127;28;96527;-73
2023/03/07 08:16:21;;;;;;;5.18;1.17;;;5.80;99.90;;;;;;5000690;28;93313;-73
2023/03/07 08:18:50;;;;;;;2.63;0.77;;;5.80;99.90;;;;;;5018489;28;92486;-73
2023/03/07 08:21:18;;;;;;;5.20;1.20;;;5.80;99.90;;;;;;5000623;28;91755;-73
2023/03/07 08:23:45;;;;;;;7.90;1.10;;;5.90;99.90;;;;;;5000320;28;93320;-73
2023/03/07 08:26:12;;;;;;;4.60;1.27;;;5.90;99.90;;;;;;4983629;28;95621;-73
2023/03/07 08:28:40;;;;;;;4.13;1.23;;;5.90;99.90;;;;;;5016704;28;94864;-73
2023/03/07 08:31:11;;;;;;;5.50;1.05;;;5.90;99.90;;;;;;5018252;28;92416;-74
2023/03/07 08:33:39;;;;;;;5.35;1.13;;;6.00;99.90;;;;;;5000033;28;94719;-73
2023/03/07 08:36:06;;;;;;;4.07;0.98;;;6.00;99.90;;;;;;4999994;28;95527;-73
2023/03/07 08:38:33;;;;;;;5.03;1.10;;;6.10;99.90;;;;;;4983652;28;92414;-73
2023/03/07 08:41:06;;;;;;;3.95;1.20;;;6.20;99.90;;;;;;5017743;28;98844;-74
2023/03/07 08:43:38;;;;;;;6.28;1.10;;;6.20;99.90;;;;;;5017678;28;92562;-73
2023/03/07 08:46:05;;;;;;;3.58;1.55;;;6.30;99.90;;;;;;5000661;28;93027;-73
2023/03/07 08:48:32;;;;;;;6.53;1.92;;;6.40;99.90;;;;;;5016342;28;92472;-73
2023/03/07 08:51:08;;;;;;;6.65;2.28;;;6.50;99.90;;;;;;5000219;28;92474;-73
2023/03/07 08:53:36;;;;;;;4.18;0.70;;;6.50;99.90;;;;;;4998368;28;95601;-74
2023/03/07 08:56:08;;;;;;;3.47;0.70;;;6.50;99.90;;;;;;4999517;28;96438;-73
2023/03/07 08:58:36;;;;;;;1.95;1.00;;;6.70;99.90;;;;;;4999603;28;92500;-74
2023/03/07 09:01:05;;;;;;;2.33;1.08;;;6.70;99.90;;;;;;5000095;28;92542;-73
2023/03/07 09:03:33;;;;;;;4.05;1.23;;;6.80;99.90;;;;;;5017496;28;99329;-73
2023/03/07 09:06:01;;;;;;;3.13;0.80;;;6.90;99.90;;;;;;4999452;28;95795;-73
2023/03/07 09:08:28;;;;;;;3.65;0.88;;;7.00;99.90;;;;;;5003587;28;93529;-73
2023/03/07 09:10:59;;;;;;;4.63;1.30;;;7.00;99.90;;;;;;4996767;28;92234;-74
2023/03/07 09:13:26;;;;;;;3.50;0.90;;;7.20;99.90;;;;;;4996602;28;93077;-74
2023/03/07 09:15:53;;;;;;;2.55;0.70;;;7.30;99.90;;;;;;4996196;28;93066;-74
2023/03/07 09:18:21;;;;;;;4.10;1.55;;;7.30;99.90;;;;;;4994932;28;94900;-74
2023/03/07 09:20:48;;;;;;;6.32;1.65;;;7.40;99.90;;;;;;4995954;28;92980;-73
2023/03/07 09:23:15;;;;;;;3.00;1.00;;;7.40;99.90;;;;;;4995776;28;93293;-73
2023/03/07 09:25:43;;;;;;;9.82;1.92;;;7.50;99.90;;;;;;4995614;28;95478;-73
2023/03/07 09:28:10;;;;;;;3.03;1.27;;;7.50;99.90;;;;;;5012633;28;96021;-74
2023/03/07 09:30:37;;;;;;;4.10;0.90;;;7.50;99.90;;;;;;4997484;28;92451;-74
2023/03/07 09:33:04;;;;;;;4.50;1.02;;;7.50;99.90;;;;;;4995712;28;94404;-73
2023/03/07 09:35:31;;;;;;;3.28;1.00;;;7.50;99.90;;;;;;5012909;28;95480;-74
2023/03/07 09:37:58;;;;;;;5.40;1.55;;;7.40;99.90;;;;;;4995761;28;92526;-74
2023/03/07 09:40:27;;;;;;;3.03;0.93;;;7.40;99.90;;;;;;4997427;28;92464;-74
2023/03/07 09:43:00;;;;;;;3.95;0.98;;;7.30;99.90;;;;;;4995422;28;95632;-74
2023/03/07 09:45:45;;;;;;;2.63;0.90;;;7.30;99.90;;;;;;4995663;28;96308;-74
2023/03/07 09:48:41;;;;;;;6.97;0.93;;;7.30;99.90;;;;;;4996671;28;92915;-73
2023/03/07 09:51:29;;;;;;;2.72;0.75;;;7.30;99.90;;;;;;4997197;28;92455;-74
2023/03/07 09:54:10;;;;;;;4.25;1.27;;;7.20;99.90;;;;;;4978663;28;95684;-74
2023/03/07 09:56:49;;;;;;;6.13;1.38;;;7.00;99.90;;;;;;4997088;28;93074;-73
2023/03/07 09:59:36;;;;;;;4.35;1.00;;;7.00;99.90;;;;;;4995591;28;92523;-74
2023/03/07 10:02:16;;;;;;;4.43;1.20;;;6.80;99.90;;;;;;4995654;28;91780;-74
2023/03/07 10:05:10;;;;;;;5.93;1.50;;;6.70;99.90;;;;;;4995149;28;95739;-73
2023/03/07 10:07:37;;;;;;;6.55;1.17;;;6.50;99.90;;;;;;4981149;28;93093;-73
2023/03/07 10:10:13;;;;;;;4.18;1.23;;;6.30;99.90;;;;;;5015719;28;94822;-74
2023/03/07 10:12:49;;;;;;;4.80;1.05;;;6.30;99.90;;;;;;4998615;28;92457;-74
2023/03/07 10:15:46;;;;;;;3.00;0.93;;;6.30;99.90;;;;;;4998650;28;95903;-73
2023/03/07 10:18:25;;;;;;;5.28;1.02;;;6.40;99.90;;;;;;4998183;28;95781;-74
2023/03/07 10:21:30;;;;;;;3.60;0.85;;;6.40;99.90;;;;;;5016323;28;92394;-73
2023/03/07 10:24:13;;;;;;;5.18;1.52;;;6.60;99.90;;;;;;4998690;28;92402;-73
2023/03/07 10:26:43;;;;;;;6.70;2.35;;;6.70;99.90;;;;;;5016584;28;93396;-74
2023/03/07 10:29:16;;;;;;;5.45;1.38;;;6.70;99.90;;;;;;5016297;28;93053;-74
2023/03/07 10:31:52;;;;;;;3.65;1.25;;;6.80;99.90;;;;;;5016623;28;92454;-74
2023/03/07 10:34:28;;;;;;;5.38;1.20;;;6.90;99.90;;;;;;4998655;28;92375;-73
2023/03/07 10:37:16;;;;;;;4.07;1.48;;;7.00;99.90;;;;;;5015026;28;95674;-73
2023/03/07 10:39:48;;;;;;;7.75;1.20;;;7.20;99.90;;;;;;4997960;28;96315;-73
2023/03/07 10:42:17;;;;;;;8.68;1.58;;;7.40;99.90;;;;;;4998299;28;92440;-74
2023/03/07 10:44:47;;;;;;;5.20;1.42;;;7.60;99.90;;;;;;5016218;28;92530;-73
2023/03/07 10:47:26;;;;;;;6.43;1.48;;;7.90;99.90;;;;;;4998138;28;93937;-73
2023/03/07 10:50:24;;;;;;;5.15;1.10;;;8.20;99.90;;;;;;4981085;28;95682;-73
2023/03/07 10:52:56;;;;;;;5.18;1.70;;;8.50;99.90;;;;;;5015957;28;92840;-74
2023/03/07 10:55:38;;;;;;;5.90;1.60;;;8.60;99.90;;;;;;4998686;28;91659;-73
2023/03/07 10:58:18;;;;;;;5.68;1.98;;;8.80;99.90;;;;;;4997667;28;93321;-73
2023/03/07 11:01:00;;;;;;;7.57;1.48;;;9.00;99.90;;;;;;5015765;28;93150;-73
2023/03/07 11:03:38;;;;;;;11.98;1.67;;;9.00;99.90;;;;;;5014885;28;94833;-74
2023/03/07 11:06:31;;;;;;;10.55;1.65;;;9.20;99.90;;;;;;5014348;28;92446;-73
2023/03/07 11:09:22;;;;;;;5.28;1.20;;;9.30;99.90;;;;;;5014826;28;93154;-74
2023/03/07 11:12:10;;;;;;;6.32;1.50;;;9.40;99.90;;;;;;4998080;28;92924;-74
2023/03/07 11:14:56;;;;;;;8.07;1.50;;;9.50;99.90;;;;;;4998205;28;92508;-73
2023/03/07 11:17:47;;;;;;;5.30;1.10;;;9.70;99.90;;;;;;5014991;28;92476;-74
2023/03/07 11:20:25;;;;;;;14.75;1.95;;;9.70;99.90;;;;;;5015671;28;93347;-74
2023/03/07 11:23:22;;;;;;;5.60;1.42;;;9.80;99.90;;;;;;4997616;28;95694;-74
2023/03/07 11:25:51;;;;;;;7.15;1.23;;;9.90;99.90;;;;;;5015963;28;92476;-73
2023/03/07 11:28:30;;;;;;;3.90;1.60;;;9.80;99.90;;;;;;5015280;28;92487;-74
2023/03/07 11:31:27;;;;;;;3.78;2.05;;;9.90;99.90;;;;;;5014210;28;95803;-74
2023/03/07 11:33:54;;;;;;;6.70;1.70;;;10.00;99.90;;;;;;4993782;28;98130;-74
2023/03/07 11:36:33;;;;;;;3.33;1.10;;;9.90;99.90;;;;;;4997478;28;92426;-74
2023/03/07 11:39:29;;;;;;;6.55;1.75;;;10.00;99.90;;;;;;5015549;28;92847;-74
2023/03/07 11:42:02;;;;;;;5.60;1.20;;;10.10;99.50;;;;;;4997686;28;93217;-74
2023/03/07 11:44:34;;;;;;;9.13;2.67;;;10.10;99.90;;;;;;5015304;28;92682;-74
2023/03/07 11:47:47;;;;;;;5.70;1.58;;;10.20;99.60;;;;;;5015215;28;92442;-74
2023/03/07 11:50:20;;;;;;;6.18;1.55;;;10.30;99.90;;;;;;4953924;28;92171;-74
2023/03/07 11:53:48;;;;;;;7.13;1.73;;;10.40;99.90;;;;;;4937381;28;92533;-74
2023/03/07 11:56:32;;;;;;;4.55;1.17;;;10.50;99.00;;;;;;4933800;28;92993;-73
2023/03/07 11:59:35;;;;;;;8.57;2.20;;;10.50;99.40;;;;;;4952508;28;94971;-74
2023/03/07 12:02:22;;;;;;;7.47;1.55;;;10.60;99.00;;;;;;5005169;28;92476;-73
2023/03/07 12:04:54;;;;;;;8.52;1.45;;;10.60;99.00;;;;;;4980590;28;95674;-74
2023/03/07 12:07:46;;;;;;;4.50;1.20;;;10.70;98.70;;;;;;5014071;28;92952;-73
2023/03/07 12:10:35;;;;;;;4.03;1.20;;;10.70;97.60;;;;;;4996802;28;92529;-74
2023/03/07 12:13:30;;;;;;;6.32;1.70;;;10.60;98.00;;;;;;5014978;28;92437;-74
2023/03/07 12:16:14;;;;;;;3.15;1.02;;;10.50;97.30;;;;;;5014880;28;93142;-74
2023/03/07 12:18:52;;;;;;;4.97;1.10;;;10.40;98.10;;;;;;5013636;28;95792;-74
2023/03/07 12:21:33;;;;;;;5.45;1.75;;;10.20;97.80;;;;;;5015026;28;92957;-74
2023/03/07 12:24:25;;;;;;;7.68;1.10;;;10.20;98.30;;;;;;4996690;28;92403;-74
2023/03/07 12:26:59;;;;;;;7.88;2.03;;;10.30;98.10;;;;;;5005007;28;95642;-74
2023/03/07 12:29:37;;;;;;;8.48;2.83;;;10.10;97.90;;;;;;5016348;28;95310;-74
2023/03/07 12:32:10;;;;;;;2.78;1.17;;;9.90;97.90;;;;;;5018622;28;92365;-74
2023/03/07 12:34:42;;;;;;;1.80;0.88;;;9.00;99.40;;;;;;5000244;28;93012;-74
2023/03/07 12:37:16;;;;;;;4.97;0.93;;;8.00;99.90;;;;;;5018165;28;93312;-74
2023/03/07 12:39:51;;;;;;;3.70;1.00;;;7.30;99.90;;;;;;5018057;28;93293;-73
2023/03/07 12:42:56;;;;;;;5.32;1.13;;;6.70;99.90;;;;;;4983345;28;92527;-73
2023/03/07 12:45:27;;;;;;;5.22;1.13;;;6.40;99.90;;;;;;4987878;28;92682;-73
2023/03/07 12:47:55;;;;;;;3.65;1.42;;;6.10;99.90;;;;;;4999587;28;96024;-74
2023/03/07 12:50:45;;;;;;;5.82;1.90;;;6.10;99.90;;;;;;5017715;28;93060;-73
2023/03/07 12:53:36;;;;;;;6.65;1.80;;;6.30;99.90;;;;;;5017237;28;94807;-73
2023/03/07 12:56:29;;;;;;;9.18;2.15;;;6.50;99.90;;;;;;4999903;28;92884;-74
2023/03/07 12:59:03;;;;;;;5.78;1.50;;;6.70;99.90;;;;;;5017813;28;93217;-74
2023/03/07 13:01:31;;;;;;;3.72;0.80;;;7.00;99.90;;;;;;4999907;28;92444;-74
2023/03/07 13:04:11;;;;;;;8.65;1.60;;;7.20;99.90;;;;;;5017701;28;92582;-73
2023/03/07 13:06:40;;;;;;;3.45;1.00;;;7.50;99.90;;;;;;5017902;28;92413;-73
2023/03/07 13:09:23;;;;;;;3.83;0.98;;;7.60;99.90;;;;;;4982384;28;94529;-74
2023/03/07 13:12:08;;;;;;;5.47;1.17;;;7.80;99.90;;;;;;5000274;28;91848;-73
2023/03/07 13:14:52;;;;;;;2.90;1.17;;;8.10;99.90;;;;;;5017971;28;92394;-74
2023/03/07 13:17:46;;;;;;;3.85;1.27;;;8.20;99.90;;;;;;4999386;28;92431;-74
2023/03/07 13:20:18;;;;;;;5.70;1.25;;;8.40;99.90;;;;;;4992151;28;95881;-74
2023/03/07 13:22:45;;;;;;;4.38;1.30;;;8.50;99.90;;;;;;4999369;28;97808;-73